sensor_id;sensor_type;location;lat;lon;timestamp;P1;durP1;ratioP1;P2;durP2;ratioP2
43519;SDS011;46848;51.980;5.918;2023-04-12T00:01:17;8.32;;;1.45;;
43519;SDS011;46848;51.980;5.918;2023-04-12T00:03:43;5.32;;;1.20;;
43519;SDS011;46848;51.980;5.918;2023-04-12T00:06:14;5.22;;;1.45;;
43519;SDS011;46848;51.980;5.918;2023-04-12T00:08:41;6.07;;;1.30;;
43519;SDS011;46848;51.980;5.918;2023-04-12T00:11:10;7.88;;;1.77;;
43519;SDS011;46848;51.980;5.918;2023-04-12T00:13:36;8.70;;;1.98;;
43519;SDS011;46848;51.980;5.918;2023-04-12T00:16:02;9.60;;;2.00;;
43519;SDS011;46848;51.980;5.918;2023-04-12T00:18:31;7.63;;;1.48;;
43519;SDS011;46848;51.980;5.918;2023-04-12T00:20:56;5.47;;;1.52;;
43519;SDS011;46848;51.980;5.918;2023-04-12T00:23:22;9.52;;;1.70;;
43519;SDS011;46848;51.980;5.918;2023-04-12T00:25:47;5.10;;;1.80;;
43519;SDS011;46848;51.980;5.918;2023-04-12T00:28:13;8.45;;;1.90;;
43519;SDS011;46848;51.980;5.918;2023-04-12T00:30:41;11.55;;;1.58;;
43519;SDS011;46848;51.980;5.918;2023-04-12T00:33:07;8.15;;;1.95;;
43519;SDS011;46848;51.980;5.918;2023-04-12T00:35:33;8.35;;;1.83;;
43519;SDS011;46848;51.980;5.918;2023-04-12T00:37:58;8.50;;;1.75;;
43519;SDS011;46848;51.980;5.918;2023-04-12T00:40:26;6.78;;;2.10;;
43519;SDS011;46848;51.980;5.918;2023-04-12T00:42:52;7.22;;;1.85;;
43519;SDS011;46848;51.980;5.918;2023-04-12T00:45:18;10.75;;;2.05;;
43519;SDS011;46848;51.980;5.918;2023-04-12T00:47:45;7.68;;;1.65;;
43519;SDS011;46848;51.980;5.918;2023-04-12T00:50:11;7.70;;;1.48;;
43519;SDS011;46848;51.980;5.918;2023-04-12T00:52:38;4.55;;;1.38;;
43519;SDS011;46848;51.980;5.918;2023-04-12T00:55:04;7.25;;;1.80;;
43519;SDS011;46848;51.980;5.918;2023-04-12T00:57:37;5.50;;;1.40;;
43519;SDS011;46848;51.980;5.918;2023-04-12T01:00:07;9.13;;;1.73;;
43519;SDS011;46848;51.980;5.918;2023-04-12T01:02:38;6.13;;;1.30;;
43519;SDS011;46848;51.980;5.918;2023-04-12T01:05:06;7.23;;;1.43;;
43519;SDS011;46848;51.980;5.918;2023-04-12T01:07:46;6.17;;;1.30;;
43519;SDS011;46848;51.980;5.918;2023-04-12T01:13:23;3.87;;;1.10;;
43519;SDS011;46848;51.980;5.918;2023-04-12T01:16:04;3.00;;;1.00;;
43519;SDS011;46848;51.980;5.918;2023-04-12T01:18:38;5.47;;;1.30;;
43519;SDS011;46848;51.980;5.918;2023-04-12T01:21:11;9.00;;;2.80;;
43519;SDS011;46848;51.980;5.918;2023-04-12T01:26:40;5.73;;;1.47;;
43519;SDS011;46848;51.980;5.918;2023-04-12T01:29:10;6.73;;;1.67;;
43519;SDS011;46848;51.980;5.918;2023-04-12T01:31:48;5.20;;;1.10;;
43519;SDS011;46848;51.980;5.918;2023-04-12T01:34:17;7.53;;;1.50;;
43519;SDS011;46848;51.980;5.918;2023-04-12T01:36:43;7.93;;;1.23;;
43519;SDS011;46848;51.980;5.918;2023-04-12T01:39:12;8.73;;;1.60;;
43519;SDS011;46848;51.980;5.918;2023-04-12T01:41:38;3.43;;;1.07;;
43519;SDS011;46848;51.980;5.918;2023-04-12T01:44:06;3.13;;;1.00;;
43519;SDS011;46848;51.980;5.918;2023-04-12T01:46:32;3.90;;;0.97;;
43519;SDS011;46848;51.980;5.918;2023-04-12T01:49:00;7.13;;;1.43;;
43519;SDS011;46848;51.980;5.918;2023-04-12T01:56:56;5.97;;;1.67;;
43519;SDS011;46848;51.980;5.918;2023-04-12T01:59:26;6.37;;;1.37;;
43519;SDS011;46848;51.980;5.918;2023-04-12T02:01:55;5.23;;;1.63;;
43519;SDS011;46848;51.980;5.918;2023-04-12T02:04:23;7.20;;;1.60;;
43519;SDS011;46848;51.980;5.918;2023-04-12T02:06:51;8.40;;;1.60;;
43519;SDS011;46848;51.980;5.918;2023-04-12T02:09:18;8.60;;;1.73;;
43519;SDS011;46848;51.980;5.918;2023-04-12T02:11:47;7.43;;;1.47;;
43519;SDS011;46848;51.980;5.918;2023-04-12T02:14:13;9.30;;;2.03;;
43519;SDS011;46848;51.980;5.918;2023-04-12T02:16:40;8.87;;;2.10;;
43519;SDS011;46848;51.980;5.918;2023-04-12T02:19:09;5.37;;;1.70;;
43519;SDS011;46848;51.980;5.918;2023-04-12T02:21:38;6.30;;;1.70;;
43519;SDS011;46848;51.980;5.918;2023-04-12T02:24:05;5.90;;;1.43;;
43519;SDS011;46848;51.980;5.918;2023-04-12T02:26:31;6.83;;;1.93;;
43519;SDS011;46848;51.980;5.918;2023-04-12T02:28:56;5.67;;;1.40;;
43519;SDS011;46848;51.980;5.918;2023-04-12T02:31:22;7.67;;;1.93;;
43519;SDS011;46848;51.980;5.918;2023-04-12T02:33:48;8.47;;;1.77;;
43519;SDS011;46848;51.980;5.918;2023-04-12T02:36:17;7.20;;;1.87;;
43519;SDS011;46848;51.980;5.918;2023-04-12T02:38:43;7.30;;;1.70;;
43519;SDS011;46848;51.980;5.918;2023-04-12T02:41:08;7.53;;;1.53;;
43519;SDS011;46848;51.980;5.918;2023-04-12T02:43:34;6.43;;;1.47;;
43519;SDS011;46848;51.980;5.918;2023-04-12T02:46:00;5.60;;;1.23;;
43519;SDS011;46848;51.980;5.918;2023-04-12T02:48:26;9.37;;;1.37;;
43519;SDS011;46848;51.980;5.918;2023-04-12T02:50:51;4.33;;;1.47;;
43519;SDS011;46848;51.980;5.918;2023-04-12T02:53:18;5.87;;;1.30;;
43519;SDS011;46848;51.980;5.918;2023-04-12T02:55:45;7.17;;;1.30;;
43519;SDS011;46848;51.980;5.918;2023-04-12T02:58:11;5.87;;;1.63;;
43519;SDS011;46848;51.980;5.918;2023-04-12T03:00:38;7.80;;;1.50;;
43519;SDS011;46848;51.980;5.918;2023-04-12T03:03:06;5.80;;;1.20;;
43519;SDS011;46848;51.980;5.918;2023-04-12T03:05:32;7.17;;;1.27;;
43519;SDS011;46848;51.980;5.918;2023-04-12T03:08:00;7.80;;;1.30;;
43519;SDS011;46848;51.980;5.918;2023-04-12T03:10:25;5.97;;;1.50;;
43519;SDS011;46848;51.980;5.918;2023-04-12T03:12:52;6.63;;;1.50;;
43519;SDS011;46848;51.980;5.918;2023-04-12T03:15:19;4.03;;;1.33;;
43519;SDS011;46848;51.980;5.918;2023-04-12T03:17:47;5.53;;;1.10;;
43519;SDS011;46848;51.980;5.918;2023-04-12T03:20:12;4.37;;;1.40;;
43519;SDS011;46848;51.980;5.918;2023-04-12T03:22:41;5.13;;;1.10;;
43519;SDS011;46848;51.980;5.918;2023-04-12T03:25:07;6.37;;;1.43;;
43519;SDS011;46848;51.980;5.918;2023-04-12T03:27:34;11.73;;;1.87;;
43519;SDS011;46848;51.980;5.918;2023-04-12T03:29:59;8.57;;;1.93;;
43519;SDS011;46848;51.980;5.918;2023-04-12T03:32:26;6.90;;;2.13;;
43519;SDS011;46848;51.980;5.918;2023-04-12T03:34:53;7.27;;;2.00;;
43519;SDS011;46848;51.980;5.918;2023-04-12T03:37:22;6.80;;;1.93;;
43519;SDS011;46848;51.980;5.918;2023-04-12T03:39:49;7.53;;;2.20;;
43519;SDS011;46848;51.980;5.918;2023-04-12T03:42:14;6.80;;;2.00;;
43519;SDS011;46848;51.980;5.918;2023-04-12T03:44:40;6.10;;;1.53;;
43519;SDS011;46848;51.980;5.918;2023-04-12T03:47:07;8.40;;;1.60;;
43519;SDS011;46848;51.980;5.918;2023-04-12T03:49:33;9.63;;;1.93;;
43519;SDS011;46848;51.980;5.918;2023-04-12T03:52:02;5.57;;;1.57;;
43519;SDS011;46848;51.980;5.918;2023-04-12T03:54:30;8.70;;;1.70;;
43519;SDS011;46848;51.980;5.918;2023-04-12T03:56:57;6.50;;;1.47;;
43519;SDS011;46848;51.980;5.918;2023-04-12T03:59:22;5.90;;;1.70;;
43519;SDS011;46848;51.980;5.918;2023-04-12T04:01:49;5.50;;;1.47;;
43519;SDS011;46848;51.980;5.918;2023-04-12T04:04:15;5.60;;;1.13;;
43519;SDS011;46848;51.980;5.918;2023-04-12T04:06:41;6.33;;;1.40;;
43519;SDS011;46848;51.980;5.918;2023-04-12T04:09:10;5.17;;;1.17;;
43519;SDS011;46848;51.980;5.918;2023-04-12T04:11:35;6.37;;;1.30;;
43519;SDS011;46848;51.980;5.918;2023-04-12T04:14:02;6.27;;;1.10;;
43519;SDS011;46848;51.980;5.918;2023-04-12T04:16:28;5.20;;;1.10;;
43519;SDS011;46848;51.980;5.918;2023-04-12T04:18:54;4.70;;;1.13;;
43519;SDS011;46848;51.980;5.918;2023-04-12T04:21:22;4.37;;;1.57;;
43519;SDS011;46848;51.980;5.918;2023-04-12T04:23:49;6.93;;;1.50;;
43519;SDS011;46848;51.980;5.918;2023-04-12T04:26:16;4.80;;;1.47;;
43519;SDS011;46848;51.980;5.918;2023-04-12T04:28:42;4.40;;;1.23;;
43519;SDS011;46848;51.980;5.918;2023-04-12T04:31:12;4.40;;;1.10;;
43519;SDS011;46848;51.980;5.918;2023-04-12T04:33:38;3.60;;;1.30;;
43519;SDS011;46848;51.980;5.918;2023-04-12T04:36:05;6.47;;;1.60;;
43519;SDS011;46848;51.980;5.918;2023-04-12T04:38:31;6.13;;;1.30;;
43519;SDS011;46848;51.980;5.918;2023-04-12T04:41:00;4.43;;;1.07;;
43519;SDS011;46848;51.980;5.918;2023-04-12T04:43:27;5.07;;;1.47;;
43519;SDS011;46848;51.980;5.918;2023-04-12T04:45:55;4.50;;;1.30;;
43519;SDS011;46848;51.980;5.918;2023-04-12T04:48:22;8.27;;;1.67;;
43519;SDS011;46848;51.980;5.918;2023-04-12T04:50:48;4.33;;;1.27;;
43519;SDS011;46848;51.980;5.918;2023-04-12T04:53:16;5.90;;;1.20;;
43519;SDS011;46848;51.980;5.918;2023-04-12T04:55:43;5.27;;;1.23;;
43519;SDS011;46848;51.980;5.918;2023-04-12T04:58:10;5.63;;;1.13;;
43519;SDS011;46848;51.980;5.918;2023-04-12T05:00:36;5.23;;;1.60;;
43519;SDS011;46848;51.980;5.918;2023-04-12T05:03:02;5.40;;;1.50;;
43519;SDS011;46848;51.980;5.918;2023-04-12T05:05:28;4.07;;;1.40;;
43519;SDS011;46848;51.980;5.918;2023-04-12T05:07:55;5.40;;;1.73;;
43519;SDS011;46848;51.980;5.918;2023-04-12T05:10:23;5.40;;;1.83;;
43519;SDS011;46848;51.980;5.918;2023-04-12T05:12:48;6.13;;;1.93;;
43519;SDS011;46848;51.980;5.918;2023-04-12T05:15:14;4.60;;;1.60;;
43519;SDS011;46848;51.980;5.918;2023-04-12T05:17:40;4.87;;;1.80;;
43519;SDS011;46848;51.980;5.918;2023-04-12T05:20:06;6.63;;;1.77;;
43519;SDS011;46848;51.980;5.918;2023-04-12T05:22:34;5.23;;;1.50;;
43519;SDS011;46848;51.980;5.918;2023-04-12T05:25:00;7.13;;;2.13;;
43519;SDS011;46848;51.980;5.918;2023-04-12T05:27:28;7.30;;;1.47;;
43519;SDS011;46848;51.980;5.918;2023-04-12T05:29:57;7.40;;;1.97;;
43519;SDS011;46848;51.980;5.918;2023-04-12T05:32:23;5.90;;;1.50;;
43519;SDS011;46848;51.980;5.918;2023-04-12T05:34:49;3.40;;;1.20;;
43519;SDS011;46848;51.980;5.918;2023-04-12T05:37:15;4.33;;;1.57;;
43519;SDS011;46848;51.980;5.918;2023-04-12T05:39:40;7.03;;;1.57;;
43519;SDS011;46848;51.980;5.918;2023-04-12T05:42:09;3.03;;;1.30;;
43519;SDS011;46848;51.980;5.918;2023-04-12T05:44:35;3.77;;;1.80;;
43519;SDS011;46848;51.980;5.918;2023-04-12T05:47:01;6.17;;;1.83;;
43519;SDS011;46848;51.980;5.918;2023-04-12T05:49:28;5.97;;;1.53;;
43519;SDS011;46848;51.980;5.918;2023-04-12T05:51:55;2.57;;;1.27;;
43519;SDS011;46848;51.980;5.918;2023-04-12T05:54:21;3.77;;;1.37;;
43519;SDS011;46848;51.980;5.918;2023-04-12T05:56:46;3.20;;;1.07;;
43519;SDS011;46848;51.980;5.918;2023-04-12T05:59:12;4.43;;;1.43;;
43519;SDS011;46848;51.980;5.918;2023-04-12T06:01:38;4.57;;;1.20;;
43519;SDS011;46848;51.980;5.918;2023-04-12T06:04:07;3.90;;;1.53;;
43519;SDS011;46848;51.980;5.918;2023-04-12T06:06:32;3.63;;;1.33;;
43519;SDS011;46848;51.980;5.918;2023-04-12T06:08:59;3.13;;;1.40;;
43519;SDS011;46848;51.980;5.918;2023-04-12T06:11:27;2.03;;;0.97;;
43519;SDS011;46848;51.980;5.918;2023-04-12T06:13:52;7.20;;;1.17;;
43519;SDS011;46848;51.980;5.918;2023-04-12T06:16:18;4.60;;;1.60;;
43519;SDS011;46848;51.980;5.918;2023-04-12T06:18:44;2.80;;;1.03;;
43519;SDS011;46848;51.980;5.918;2023-04-12T06:21:10;5.43;;;1.60;;
43519;SDS011;46848;51.980;5.918;2023-04-12T06:23:35;4.90;;;1.40;;
43519;SDS011;46848;51.980;5.918;2023-04-12T06:26:02;2.90;;;1.27;;
43519;SDS011;46848;51.980;5.918;2023-04-12T06:28:28;4.50;;;1.50;;
43519;SDS011;46848;51.980;5.918;2023-04-12T06:30:53;2.37;;;1.30;;
43519;SDS011;46848;51.980;5.918;2023-04-12T06:33:19;2.47;;;1.07;;
43519;SDS011;46848;51.980;5.918;2023-04-12T06:35:47;4.67;;;1.27;;
43519;SDS011;46848;51.980;5.918;2023-04-12T06:38:12;6.13;;;1.40;;
43519;SDS011;46848;51.980;5.918;2023-04-12T06:40:38;4.97;;;1.93;;
43519;SDS011;46848;51.980;5.918;2023-04-12T06:43:04;4.80;;;1.60;;
43519;SDS011;46848;51.980;5.918;2023-04-12T06:45:29;2.93;;;1.40;;
43519;SDS011;46848;51.980;5.918;2023-04-12T06:47:56;5.03;;;1.40;;
43519;SDS011;46848;51.980;5.918;2023-04-12T06:50:22;3.27;;;1.30;;
43519;SDS011;46848;51.980;5.918;2023-04-12T06:52:49;3.00;;;1.00;;
43519;SDS011;46848;51.980;5.918;2023-04-12T06:55:14;3.60;;;1.40;;
43519;SDS011;46848;51.980;5.918;2023-04-12T06:57:40;3.10;;;1.07;;
43519;SDS011;46848;51.980;5.918;2023-04-12T07:00:07;3.97;;;1.00;;
43519;SDS011;46848;51.980;5.918;2023-04-12T07:02:33;2.20;;;1.20;;
43519;SDS011;46848;51.980;5.918;2023-04-12T07:04:58;1.67;;;0.83;;
43519;SDS011;46848;51.980;5.918;2023-04-12T07:07:24;2.10;;;0.90;;
43519;SDS011;46848;51.980;5.918;2023-04-12T07:09:50;3.60;;;1.00;;
43519;SDS011;46848;51.980;5.918;2023-04-12T07:12:16;1.53;;;1.07;;
43519;SDS011;46848;51.980;5.918;2023-04-12T07:14:43;1.57;;;0.87;;
43519;SDS011;46848;51.980;5.918;2023-04-12T07:17:09;2.93;;;1.00;;
43519;SDS011;46848;51.980;5.918;2023-04-12T07:19:35;3.27;;;1.07;;
43519;SDS011;46848;51.980;5.918;2023-04-12T07:22:00;4.07;;;1.00;;
43519;SDS011;46848;51.980;5.918;2023-04-12T07:24:26;3.63;;;0.77;;
43519;SDS011;46848;51.980;5.918;2023-04-12T07:26:53;1.83;;;0.70;;
43519;SDS011;46848;51.980;5.918;2023-04-12T07:29:19;2.07;;;0.87;;
43519;SDS011;46848;51.980;5.918;2023-04-12T07:31:45;1.60;;;0.80;;
43519;SDS011;46848;51.980;5.918;2023-04-12T07:34:11;1.40;;;0.60;;
43519;SDS011;46848;51.980;5.918;2023-04-12T07:36:37;1.67;;;0.70;;
43519;SDS011;46848;51.980;5.918;2023-04-12T07:39:03;4.37;;;0.77;;
43519;SDS011;46848;51.980;5.918;2023-04-12T07:41:29;2.03;;;0.80;;
43519;SDS011;46848;51.980;5.918;2023-04-12T07:43:54;2.47;;;1.20;;
43519;SDS011;46848;51.980;5.918;2023-04-12T07:46:20;3.10;;;1.10;;
43519;SDS011;46848;51.980;5.918;2023-04-12T07:48:46;3.50;;;1.50;;
43519;SDS011;46848;51.980;5.918;2023-04-12T07:51:12;4.97;;;1.23;;
43519;SDS011;46848;51.980;5.918;2023-04-12T07:53:40;3.50;;;1.80;;
43519;SDS011;46848;51.980;5.918;2023-04-12T07:56:06;4.20;;;1.60;;
43519;SDS011;46848;51.980;5.918;2023-04-12T07:58:36;2.53;;;1.20;;
43519;SDS011;46848;51.980;5.918;2023-04-12T08:01:03;1.57;;;0.70;;
43519;SDS011;46848;51.980;5.918;2023-04-12T08:03:29;7.23;;;1.83;;
43519;SDS011;46848;51.980;5.918;2023-04-12T08:05:55;3.87;;;1.17;;
43519;SDS011;46848;51.980;5.918;2023-04-12T08:08:21;5.00;;;1.80;;
43519;SDS011;46848;51.980;5.918;2023-04-12T08:10:47;3.53;;;1.20;;
43519;SDS011;46848;51.980;5.918;2023-04-12T08:13:13;2.73;;;1.20;;
43519;SDS011;46848;51.980;5.918;2023-04-12T08:15:42;4.03;;;1.40;;
43519;SDS011;46848;51.980;5.918;2023-04-12T08:18:11;2.83;;;1.60;;
43519;SDS011;46848;51.980;5.918;2023-04-12T08:20:38;2.53;;;1.30;;
43519;SDS011;46848;51.980;5.918;2023-04-12T08:23:08;4.03;;;1.47;;
43519;SDS011;46848;51.980;5.918;2023-04-12T08:25:35;4.73;;;1.63;;
43519;SDS011;46848;51.980;5.918;2023-04-12T08:28:01;3.53;;;1.02;;
43519;SDS011;46848;51.980;5.918;2023-04-12T08:30:28;6.28;;;1.40;;
43519;SDS011;46848;51.980;5.918;2023-04-12T08:32:53;3.92;;;1.20;;
43519;SDS011;46848;51.980;5.918;2023-04-12T08:35:20;6.28;;;1.67;;
43519;SDS011;46848;51.980;5.918;2023-04-12T08:37:46;5.07;;;1.50;;
43519;SDS011;46848;51.980;5.918;2023-04-12T08:40:12;4.32;;;1.33;;
43519;SDS011;46848;51.980;5.918;2023-04-12T08:42:38;4.68;;;1.50;;
43519;SDS011;46848;51.980;5.918;2023-04-12T08:45:05;5.13;;;1.70;;
43519;SDS011;46848;51.980;5.918;2023-04-12T08:47:33;6.43;;;1.67;;
43519;SDS011;46848;51.980;5.918;2023-04-12T08:50:08;7.97;;;1.85;;
43519;SDS011;46848;51.980;5.918;2023-04-12T08:52:37;5.00;;;1.25;;
43519;SDS011;46848;51.980;5.918;2023-04-12T08:55:04;9.32;;;1.80;;
43519;SDS011;46848;51.980;5.918;2023-04-12T08:57:32;8.02;;;1.63;;
43519;SDS011;46848;51.980;5.918;2023-04-12T09:00:02;18.50;;;2.63;;
43519;SDS011;46848;51.980;5.918;2023-04-12T09:02:28;6.40;;;1.80;;
43519;SDS011;46848;51.980;5.918;2023-04-12T09:04:54;4.67;;;1.90;;
43519;SDS011;46848;51.980;5.918;2023-04-12T09:07:20;7.07;;;1.45;;
43519;SDS011;46848;51.980;5.918;2023-04-12T09:09:54;8.02;;;1.63;;
43519;SDS011;46848;51.980;5.918;2023-04-12T09:12:20;9.65;;;2.08;;
43519;SDS011;46848;51.980;5.918;2023-04-12T09:15:11;12.80;;;1.98;;
43519;SDS011;46848;51.980;5.918;2023-04-12T09:17:37;7.15;;;1.83;;
43519;SDS011;46848;51.980;5.918;2023-04-12T09:20:22;7.15;;;1.73;;
43519;SDS011;46848;51.980;5.918;2023-04-12T09:22:50;8.50;;;2.17;;
43519;SDS011;46848;51.980;5.918;2023-04-12T09:25:18;7.60;;;2.60;;
43519;SDS011;46848;51.980;5.918;2023-04-12T09:27:58;7.13;;;1.58;;
43519;SDS011;46848;51.980;5.918;2023-04-12T09:30:24;7.07;;;1.80;;
43519;SDS011;46848;51.980;5.918;2023-04-12T09:32:50;8.15;;;2.10;;
43519;SDS011;46848;51.980;5.918;2023-04-12T09:35:17;9.88;;;2.28;;
43519;SDS011;46848;51.980;5.918;2023-04-12T09:37:43;9.20;;;2.08;;
43519;SDS011;46848;51.980;5.918;2023-04-12T09:40:09;8.20;;;2.17;;
43519;SDS011;46848;51.980;5.918;2023-04-12T09:42:47;8.55;;;1.90;;
43519;SDS011;46848;51.980;5.918;2023-04-12T09:45:19;9.85;;;2.00;;
43519;SDS011;46848;51.980;5.918;2023-04-12T09:47:49;7.20;;;2.55;;
43519;SDS011;46848;51.980;5.918;2023-04-12T09:50:19;11.45;;;2.50;;
43519;SDS011;46848;51.980;5.918;2023-04-12T09:52:46;8.25;;;2.20;;
43519;SDS011;46848;51.980;5.918;2023-04-12T09:55:17;9.38;;;2.38;;
43519;SDS011;46848;51.980;5.918;2023-04-12T09:57:46;10.70;;;2.58;;
43519;SDS011;46848;51.980;5.918;2023-04-12T10:00:16;7.00;;;2.55;;
43519;SDS011;46848;51.980;5.918;2023-04-12T10:02:47;8.98;;;2.90;;
43519;SDS011;46848;51.980;5.918;2023-04-12T10:05:15;10.75;;;2.22;;
43519;SDS011;46848;51.980;5.918;2023-04-12T10:07:42;6.68;;;1.60;;
43519;SDS011;46848;51.980;5.918;2023-04-12T10:10:09;9.23;;;2.25;;
43519;SDS011;46848;51.980;5.918;2023-04-12T10:12:41;7.82;;;2.05;;
43519;SDS011;46848;51.980;5.918;2023-04-12T10:15:08;14.82;;;2.85;;
43519;SDS011;46848;51.980;5.918;2023-04-12T10:20:11;12.25;;;2.88;;
43519;SDS011;46848;51.980;5.918;2023-04-12T10:22:41;9.23;;;2.13;;
43519;SDS011;46848;51.980;5.918;2023-04-12T10:25:12;11.13;;;2.00;;
43519;SDS011;46848;51.980;5.918;2023-04-12T10:27:40;13.20;;;2.63;;
43519;SDS011;46848;51.980;5.918;2023-04-12T10:33:33;11.38;;;2.45;;
43519;SDS011;46848;51.980;5.918;2023-04-12T10:38:27;7.82;;;2.22;;
43519;SDS011;46848;51.980;5.918;2023-04-12T10:43:43;10.02;;;2.72;;
43519;SDS011;46848;51.980;5.918;2023-04-12T10:49:06;17.75;;;3.17;;
43519;SDS011;46848;51.980;5.918;2023-04-12T10:51:33;11.82;;;2.67;;
43519;SDS011;46848;51.980;5.918;2023-04-12T10:56:43;14.57;;;2.50;;
43519;SDS011;46848;51.980;5.918;2023-04-12T10:59:10;8.90;;;2.63;;
43519;SDS011;46848;51.980;5.918;2023-04-12T11:01:37;11.88;;;2.42;;
43519;SDS011;46848;51.980;5.918;2023-04-12T11:04:10;12.70;;;2.58;;
43519;SDS011;46848;51.980;5.918;2023-04-12T11:06:47;10.23;;;2.60;;
43519;SDS011;46848;51.980;5.918;2023-04-12T11:09:28;12.10;;;2.35;;
43519;SDS011;46848;51.980;5.918;2023-04-12T11:14:44;11.30;;;2.78;;
43519;SDS011;46848;51.980;5.918;2023-04-12T11:19:38;11.57;;;2.08;;
43519;SDS011;46848;51.980;5.918;2023-04-12T11:22:07;13.40;;;2.85;;
43519;SDS011;46848;51.980;5.918;2023-04-12T11:24:37;9.93;;;2.10;;
43519;SDS011;46848;51.980;5.918;2023-04-12T11:27:03;12.52;;;2.60;;
43519;SDS011;46848;51.980;5.918;2023-04-12T11:29:29;9.10;;;1.90;;
43519;SDS011;46848;51.980;5.918;2023-04-12T11:31:56;11.60;;;2.30;;
43519;SDS011;46848;51.980;5.918;2023-04-12T11:34:22;11.35;;;3.20;;
43519;SDS011;46848;51.980;5.918;2023-04-12T11:36:51;10.02;;;2.70;;
43519;SDS011;46848;51.980;5.918;2023-04-12T11:39:18;10.63;;;2.70;;
43519;SDS011;46848;51.980;5.918;2023-04-12T11:41:45;12.60;;;2.40;;
43519;SDS011;46848;51.980;5.918;2023-04-12T11:44:12;14.93;;;2.38;;
43519;SDS011;46848;51.980;5.918;2023-04-12T11:46:38;13.13;;;2.85;;
43519;SDS011;46848;51.980;5.918;2023-04-12T11:49:05;12.30;;;2.70;;
43519;SDS011;46848;51.980;5.918;2023-04-12T11:51:32;10.80;;;2.72;;
43519;SDS011;46848;51.980;5.918;2023-04-12T11:53:58;11.55;;;2.15;;
43519;SDS011;46848;51.980;5.918;2023-04-12T11:56:24;10.55;;;2.30;;
43519;SDS011;46848;51.980;5.918;2023-04-12T11:58:51;27.48;;;13.77;;
43519;SDS011;46848;51.980;5.918;2023-04-12T12:01:17;20.60;;;7.22;;
43519;SDS011;46848;51.980;5.918;2023-04-12T12:03:45;15.07;;;4.97;;
43519;SDS011;46848;51.980;5.918;2023-04-12T12:06:12;17.88;;;3.53;;
43519;SDS011;46848;51.980;5.918;2023-04-12T12:08:39;12.95;;;2.22;;
43519;SDS011;46848;51.980;5.918;2023-04-12T12:11:05;10.98;;;2.10;;
43519;SDS011;46848;51.980;5.918;2023-04-12T12:13:50;11.30;;;2.33;;
43519;SDS011;46848;51.980;5.918;2023-04-12T12:16:23;8.93;;;1.60;;
43519;SDS011;46848;51.980;5.918;2023-04-12T12:21:18;8.52;;;1.67;;
43519;SDS011;46848;51.980;5.918;2023-04-12T12:23:45;6.47;;;1.60;;
43519;SDS011;46848;51.980;5.918;2023-04-12T12:26:18;7.03;;;1.83;;
43519;SDS011;46848;51.980;5.918;2023-04-12T12:28:49;8.30;;;2.10;;
43519;SDS011;46848;51.980;5.918;2023-04-12T12:31:19;8.45;;;1.88;;
43519;SDS011;46848;51.980;5.918;2023-04-12T12:33:47;9.60;;;2.00;;
43519;SDS011;46848;51.980;5.918;2023-04-12T12:36:12;8.27;;;1.65;;
43519;SDS011;46848;51.980;5.918;2023-04-12T12:38:43;7.68;;;1.55;;
43519;SDS011;46848;51.980;5.918;2023-04-12T12:46:10;6.28;;;1.88;;
43519;SDS011;46848;51.980;5.918;2023-04-12T12:48:46;9.23;;;2.10;;
43519;SDS011;46848;51.980;5.918;2023-04-12T12:51:14;8.60;;;1.80;;
43519;SDS011;46848;51.980;5.918;2023-04-12T12:53:44;10.93;;;2.05;;
43519;SDS011;46848;51.980;5.918;2023-04-12T12:56:11;9.20;;;1.90;;
43519;SDS011;46848;51.980;5.918;2023-04-12T12:58:37;6.75;;;1.42;;
43519;SDS011;46848;51.980;5.918;2023-04-12T13:01:04;5.13;;;1.38;;
43519;SDS011;46848;51.980;5.918;2023-04-12T13:03:30;6.25;;;1.40;;
43519;SDS011;46848;51.980;5.918;2023-04-12T13:05:56;3.70;;;1.00;;
43519;SDS011;46848;51.980;5.918;2023-04-12T13:08:24;3.67;;;1.02;;
43519;SDS011;46848;51.980;5.918;2023-04-12T13:10:50;4.28;;;1.10;;
43519;SDS011;46848;51.980;5.918;2023-04-12T13:13:17;4.32;;;1.27;;
43519;SDS011;46848;51.980;5.918;2023-04-12T13:15:43;4.05;;;1.20;;
43519;SDS011;46848;51.980;5.918;2023-04-12T13:18:15;5.30;;;1.48;;
43519;SDS011;46848;51.980;5.918;2023-04-12T13:20:41;5.32;;;1.30;;
43519;SDS011;46848;51.980;5.918;2023-04-12T13:23:07;5.07;;;1.05;;
43519;SDS011;46848;51.980;5.918;2023-04-12T13:25:33;7.65;;;1.42;;
43519;SDS011;46848;51.980;5.918;2023-04-12T13:27:58;5.15;;;1.40;;
43519;SDS011;46848;51.980;5.918;2023-04-12T13:30:24;7.22;;;1.58;;
43519;SDS011;46848;51.980;5.918;2023-04-12T13:32:50;8.48;;;1.50;;
43519;SDS011;46848;51.980;5.918;2023-04-12T13:35:15;9.02;;;2.00;;
43519;SDS011;46848;51.980;5.918;2023-04-12T13:37:41;6.40;;;2.08;;
43519;SDS011;46848;51.980;5.918;2023-04-12T13:40:07;6.60;;;1.30;;
43519;SDS011;46848;51.980;5.918;2023-04-12T13:42:33;7.55;;;1.48;;
43519;SDS011;46848;51.980;5.918;2023-04-12T13:44:58;6.95;;;1.30;;
43519;SDS011;46848;51.980;5.918;2023-04-12T13:47:25;9.98;;;1.40;;
43519;SDS011;46848;51.980;5.918;2023-04-12T13:49:51;7.57;;;1.60;;
43519;SDS011;46848;51.980;5.918;2023-04-12T13:52:18;11.68;;;1.30;;
43519;SDS011;46848;51.980;5.918;2023-04-12T13:54:44;7.32;;;1.40;;
43519;SDS011;46848;51.980;5.918;2023-04-12T13:57:10;8.00;;;1.55;;
43519;SDS011;46848;51.980;5.918;2023-04-12T13:59:35;7.90;;;1.58;;
43519;SDS011;46848;51.980;5.918;2023-04-12T14:02:03;3.90;;;1.42;;
43519;SDS011;46848;51.980;5.918;2023-04-12T14:04:29;5.97;;;1.30;;
43519;SDS011;46848;51.980;5.918;2023-04-12T14:06:55;6.45;;;1.25;;
43519;SDS011;46848;51.980;5.918;2023-04-12T14:09:22;8.10;;;1.70;;
43519;SDS011;46848;51.980;5.918;2023-04-12T14:11:50;4.15;;;1.10;;
43519;SDS011;46848;51.980;5.918;2023-04-12T14:14:16;5.13;;;1.10;;
43519;SDS011;46848;51.980;5.918;2023-04-12T14:16:45;5.72;;;1.25;;
43519;SDS011;46848;51.980;5.918;2023-04-12T14:19:10;4.93;;;1.13;;
43519;SDS011;46848;51.980;5.918;2023-04-12T14:21:36;4.50;;;0.98;;
43519;SDS011;46848;51.980;5.918;2023-04-12T14:24:02;9.35;;;2.90;;
43519;SDS011;46848;51.980;5.918;2023-04-12T14:26:28;7.43;;;1.95;;
43519;SDS011;46848;51.980;5.918;2023-04-12T14:28:53;5.30;;;1.67;;
43519;SDS011;46848;51.980;5.918;2023-04-12T14:31:20;6.88;;;1.30;;
43519;SDS011;46848;51.980;5.918;2023-04-12T14:33:46;4.03;;;0.93;;
43519;SDS011;46848;51.980;5.918;2023-04-12T14:36:11;3.65;;;0.80;;
43519;SDS011;46848;51.980;5.918;2023-04-12T14:38:37;5.10;;;1.42;;
43519;SDS011;46848;51.980;5.918;2023-04-12T14:41:06;6.60;;;1.35;;
43519;SDS011;46848;51.980;5.918;2023-04-12T14:43:33;4.72;;;1.13;;
43519;SDS011;46848;51.980;5.918;2023-04-12T14:45:59;5.97;;;1.38;;
43519;SDS011;46848;51.980;5.918;2023-04-12T14:48:25;3.85;;;0.80;;
43519;SDS011;46848;51.980;5.918;2023-04-12T14:50:52;3.67;;;0.90;;
43519;SDS011;46848;51.980;5.918;2023-04-12T14:53:20;3.50;;;0.80;;
43519;SDS011;46848;51.980;5.918;2023-04-12T14:55:47;2.10;;;0.70;;
43519;SDS011;46848;51.980;5.918;2023-04-12T14:58:12;3.05;;;0.70;;
43519;SDS011;46848;51.980;5.918;2023-04-12T15:00:38;4.28;;;0.73;;
43519;SDS011;46848;51.980;5.918;2023-04-12T15:03:06;4.65;;;0.73;;
43519;SDS011;46848;51.980;5.918;2023-04-12T15:05:32;3.88;;;0.90;;
43519;SDS011;46848;51.980;5.918;2023-04-12T15:07:59;3.92;;;0.90;;
43519;SDS011;46848;51.980;5.918;2023-04-12T15:10:25;4.13;;;1.00;;
43519;SDS011;46848;51.980;5.918;2023-04-12T15:12:52;5.75;;;1.35;;
43519;SDS011;46848;51.980;5.918;2023-04-12T15:15:18;7.10;;;1.40;;
43519;SDS011;46848;51.980;5.918;2023-04-12T15:17:44;2.53;;;0.90;;
43519;SDS011;46848;51.980;5.918;2023-04-12T15:20:10;3.58;;;0.85;;
43519;SDS011;46848;51.980;5.918;2023-04-12T15:22:37;3.97;;;1.08;;
43519;SDS011;46848;51.980;5.918;2023-04-12T15:25:04;3.55;;;0.65;;
43519;SDS011;46848;51.980;5.918;2023-04-12T15:27:35;2.45;;;0.73;;